Time;durP1;ratioP1;P1;durP2;ratioP2;P2;SDS_P1;SDS_P2;PMS_P1;PMS_P2;Temp;Humidity;BMP_temperature;BMP_pressure;BME280_temperature;BME280_humidity;BME280_pressure;Samples;Min_cycle;Max_cycle;Signal;HPM_P1;HPM_P2
2022/05/21 10:50:10;;;;;;;;;;;;;;;27.35;80.03;98586.19;4922652;23;19973;-69
2022/05/21 10:52:56;;;;;;;;;;;;;;;27.44;66.91;98576.66;4870316;29;19969;-70
2022/05/21 10:55:26;;;;;;;;;;;;;;;27.51;74.99;98575.44;4902220;29;19957;-71
2022/05/21 10:57:53;;;;;;;;;;;;;;;27.54;77.79;98577.28;4897863;29;19950;-72
2022/05/21 11:00:31;;;;;;;;;;;;;;;27.33;75.05;98582.25;4902559;29;19945;-69
2022/05/21 11:03:14;;;;;;;;;;;;;;;27.28;78.79;98571.50;4902160;29;20250;-70
2022/05/21 11:05:49;;;;;;;;;;;;;;;27.41;78.78;98562.53;4901017;29;19955;-72
2022/05/21 11:08:19;;;;;;;;;;;;;;;27.53;81.55;98562.16;4902499;29;19955;-71
2022/05/21 11:11:11;;;;;;;;;;;;;;;27.59;81.44;98577.34;4899140;29;19954;-72
2022/05/21 11:13:48;;;;;;;;;;;;;;;27.61;79.96;98569.00;4896065;29;19970;-72
2022/05/21 11:16:20;;;;;;;;;;;;;;;27.66;85.69;98561.72;4886345;29;19952;-72
2022/05/21 11:18:51;;;;;;;;;;;;;;;27.40;77.13;98581.84;4902459;29;19951;-72
2022/05/21 11:21:26;;;;;;;;;;;;;;;27.35;77.43;98571.84;4902241;29;19949;-72
2022/05/21 11:23:54;;;;;;;;;;;;;;;27.39;75.38;98553.63;4901857;29;20337;-71
2022/05/21 11:26:24;;;;;;;;;;;;;;;27.62;83.29;98566.91;4902106;29;19955;-71
2022/05/21 11:28:57;;;;;;;;;;;;;;;27.34;79.02;98563.72;4901527;29;19955;-71
2022/05/21 11:39:52;;;;;;;;;;;;;;;27.35;81.50;98542.31;4900934;29;20241;-71
2022/05/21 11:42:41;;;;;;;;;;;;;;;27.49;86.63;98547.19;4893801;29;19983;-71
2022/05/21 11:45:09;;;;;;;;;;;;;;;27.66;94.17;98545.28;4898265;29;19951;-71
2022/05/21 11:47:40;;;;;;;;;;;;;;;27.59;83.72;98540.00;4884828;29;19960;-71
2022/05/21 11:50:16;;;;;;;;;;;;;;;27.45;81.35;98540.91;4901482;29;19951;-71
2022/05/21 11:53:05;;;;;;;;;;;;;;;27.49;89.45;98529.97;4901750;29;20230;-71
2022/05/21 11:55:52;;;;;;;;;;;;;;;27.64;90.53;98541.34;4901218;29;19949;-71
2022/05/21 11:58:24;;;;;;;;;;;;;;;27.72;89.93;98534.63;4899511;29;19949;-71
2022/05/21 12:00:51;;;;;;;;;;;;;;;27.72;90.84;98531.78;4902075;29;19976;-71
2022/05/21 12:03:21;;;;;;;;;;;;;;;27.51;86.45;98533.13;4901793;29;19951;-70
2022/05/21 12:05:48;;;;;;;;;;;;;;;27.59;86.29;98519.88;4900995;29;19951;-70
2022/05/21 12:08:43;;;;;;;;;;;;;;;27.67;84.92;98534.59;4902055;29;19983;-71
2022/05/21 12:11:11;;;;;;;;;;;;;;;27.71;83.88;98518.69;4900083;29;19958;-70
2022/05/21 12:13:47;;;;;;;;;;;;;;;27.63;87.27;98520.44;4900350;29;19962;-70
2022/05/21 12:16:20;;;;;;;;;;;;;;;27.45;88.09;98515.06;4901384;29;20255;-70
2022/05/21 12:18:51;;;;;;;;;;;;;;;27.56;87.18;98509.41;4896172;29;19954;-70
2022/05/21 12:21:28;;;;;;;;;;;;;;;27.58;89.49;98512.56;4901903;29;19955;-71
2022/05/21 12:23:56;;;;;;;;;;;;;;;27.55;82.00;98504.97;4883156;29;19959;-70
2022/05/21 12:26:32;;;;;;;;;;;;;;;27.54;81.35;98502.59;4901537;29;20369;-70
2022/05/21 12:29:25;;;;;;;;;;;;;;;27.48;80.20;98502.56;4901536;29;19955;-70
2022/05/21 12:31:57;;;;;;;;;;;;;;;27.66;83.72;98502.19;4898531;29;19955;-70
2022/05/21 12:34:43;;;;;;;;;;;;;;;27.63;84.56;98496.69;4901043;29;19963;-70
2022/05/21 12:37:24;;;;;;;;;;;;;;;27.67;85.06;98497.22;4901407;29;19950;-70
2022/05/21 12:40:00;;;;;;;;;;;;;;;27.67;83.85;98482.88;4901379;29;20250;-69
2022/05/21 12:42:35;;;;;;;;;;;;;;;27.66;83.91;98490.69;4901660;29;19947;-69
2022/05/21 12:45:03;;;;;;;;;;;;;;;27.76;81.50;98491.28;4899934;29;19961;-70
2022/05/21 12:47:30;;;;;;;;;;;;;;;27.77;87.16;98487.13;4901026;29;19948;-69
2022/05/21 12:49:59;;;;;;;;;;;;;;;27.66;85.67;98482.06;4898430;29;19976;-70
2022/05/21 12:52:29;;;;;;;;;;;;;;;27.78;89.61;98472.25;4900416;29;19949;-70
2022/05/21 12:55:14;;;;;;;;;;;;;;;27.74;86.74;98473.78;4902663;29;19965;-69
2022/05/21 12:57:42;;;;;;;;;;;;;;;27.78;84.98;98468.59;4900448;29;20333;-69
2022/05/21 13:00:09;;;;;;;;;;;;;;;27.83;85.73;98473.56;4899273;29;19951;-70
2022/05/21 13:02:41;;;;;;;;;;;;;;;27.78;85.99;98469.38;4889285;29;19953;-70
2022/05/21 13:05:12;;;;;;;;;;;;;;;27.80;81.79;98466.75;4902246;29;20239;-70
2022/05/21 13:07:43;;;;;;;;;;;;;;;27.76;86.26;98471.16;4903878;29;19948;-70
2022/05/21 13:10:17;;;;;;;;;;;;;;;27.80;81.23;98466.00;4904167;29;20248;-70
2022/05/21 13:12:46;;;;;;;;;;;;;;;27.85;82.08;98465.25;4904200;29;20023;-69
2022/05/21 13:15:38;;;;;;;;;;;;;;;27.89;80.88;98463.72;4904325;29;19972;-69
2022/05/21 13:18:33;;;;;;;;;;;;;;;27.96;82.77;98462.44;4899901;29;19951;-69
2022/05/21 13:21:12;;;;;;;;;;;;;;;28.11;79.25;98459.44;4902090;29;19952;-69
2022/05/21 13:23:51;;;;;;;;;;;;;;;28.12;82.39;98452.41;4905277;29;20355;-70
2022/05/21 13:26:23;;;;;;;;;;;;;;;28.00;80.95;98454.41;4904664;29;19959;-70
2022/05/21 13:29:10;;;;;;;;;;;;;;;27.95;91.86;98444.41;4903594;29;20257;-69
2022/05/21 13:31:37;;;;;;;;;;;;;;;27.93;87.26;98447.00;4903200;29;20010;-69
2022/05/21 13:34:04;;;;;;;;;;;;;;;27.88;92.72;98444.09;4904413;29;19960;-69
2022/05/21 13:36:32;;;;;;;;;;;;;;;27.89;96.32;98442.81;4905057;29;20316;-69
2022/05/21 13:38:59;;;;;;;;;;;;;;;27.84;93.54;98437.81;4904439;29;19959;-69
2022/05/21 13:41:33;;;;;;;;;;;;;;;27.72;92.70;98439.81;4904118;29;19949;-69
2022/05/21 13:44:01;;;;;;;;;;;;;;;27.65;93.50;98437.41;4905216;29;19949;-69
2022/05/21 13:46:30;;;;;;;;;;;;;;;27.59;93.52;98430.81;4904336;29;19947;-69
2022/05/21 13:49:02;;;;;;;;;;;;;;;27.47;86.47;98429.16;4903793;29;20002;-69
2022/05/21 13:51:32;;;;;;;;;;;;;;;27.58;91.24;98422.72;4903439;29;20344;-69
2022/05/21 13:54:00;;;;;;;;;;;;;;;27.68;86.19;98413.38;4891655;29;19991;-69
2022/05/21 13:56:27;;;;;;;;;;;;;;;27.68;91.36;98416.25;4904419;29;19960;-69
2022/05/21 13:59:13;;;;;;;;;;;;;;;27.63;98.81;98407.63;4904739;29;19948;-69
2022/05/21 14:01:45;;;;;;;;;;;;;;;27.61;100.00;98410.22;4904226;29;20252;-70
2022/05/21 14:04:13;;;;;;;;;;;;;;;27.60;98.23;98409.41;4903748;29;19956;-69
2022/05/21 14:06:42;;;;;;;;;;;;;;;27.60;98.01;98409.41;4904061;29;19957;-69
2022/05/21 14:09:24;;;;;;;;;;;;;;;27.58;96.25;98403.41;4904150;29;19957;-69
2022/05/21 14:11:53;;;;;;;;;;;;;;;27.70;86.20;98396.44;4903316;29;20250;-70
2022/05/21 14:14:23;;;;;;;;;;;;;;;27.78;91.49;98393.88;4903078;29;20372;-69
2022/05/21 14:17:04;;;;;;;;;;;;;;;27.75;85.29;98392.03;4903573;29;19960;-69
2022/05/21 14:19:32;;;;;;;;;;;;;;;27.83;84.76;98393.09;4903730;29;19945;-69
2022/05/21 14:22:12;;;;;;;;;;;;;;;27.92;92.46;98384.31;4893095;29;19951;-69
2022/05/21 14:24:43;;;;;;;;;;;;;;;28.11;88.49;98385.47;4902021;29;20275;-69
2022/05/21 14:27:20;;;;;;;;;;;;;;;28.03;87.99;98378.63;4902935;29;19962;-69
2022/05/21 14:29:50;;;;;;;;;;;;;;;28.02;84.72;98374.97;4903029;29;19950;-69
2022/05/21 14:32:19;;;;;;;;;;;;;;;27.88;80.07;98378.00;4903160;29;19954;-69
2022/05/21 14:34:48;;;;;;;;;;;;;;;27.96;79.43;98365.50;4903764;29;19973;-69
2022/05/21 14:37:23;;;;;;;;;;;;;;;27.99;82.38;98373.13;4903061;29;19951;-69
2022/05/21 14:39:51;;;;;;;;;;;;;;;27.97;84.60;98358.44;4903159;29;20252;-69
2022/05/21 14:42:18;;;;;;;;;;;;;;;28.06;85.89;98359.56;4903604;29;19950;-69
2022/05/21 14:44:46;;;;;;;;;;;;;;;28.06;82.74;98356.69;4886614;29;19951;-69
2022/05/21 14:52:51;;;;;;;;;;;;;;;28.08;86.98;98348.34;4902621;29;19951;-70
2022/05/21 14:55:20;;;;;;;;;;;;;;;28.03;84.68;98352.75;4905938;29;19974;-70
2022/05/21 14:57:48;;;;;;;;;;;;;;;28.01;88.43;98346.75;4904220;29;20207;-70
2022/05/21 15:00:19;;;;;;;;;;;;;;;28.05;83.25;98346.50;4897913;29;20310;-69
2022/05/21 15:02:46;;;;;;;;;;;;;;;28.04;84.80;98345.72;4901490;29;19952;-70
2022/05/21 15:05:14;;;;;;;;;;;;;;;28.02;86.99;98336.03;4902248;29;19946;-70
2022/05/21 15:07:47;;;;;;;;;;;;;;;28.02;86.40;98340.47;4899200;29;19949;-69
2022/05/21 15:10:16;;;;;;;;;;;;;;;27.96;84.64;98338.84;4901137;29;19969;-69
2022/05/21 15:12:43;;;;;;;;;;;;;;;27.93;91.07;98328.38;4901770;29;19946;-69
2022/05/21 15:15:13;;;;;;;;;;;;;;;27.84;83.98;98335.13;4901764;29;19969;-69
2022/05/21 15:17:41;;;;;;;;;;;;;;;27.89;83.49;98324.97;4901090;29;19951;-70
2022/05/21 15:20:10;;;;;;;;;;;;;;;27.86;85.19;98329.66;4905909;29;19957;-70
2022/05/21 15:22:39;;;;;;;;;;;;;;;27.82;84.78;98329.13;4903505;29;19949;-69
2022/05/21 15:25:07;;;;;;;;;;;;;;;27.88;85.88;98314.75;4902492;29;19947;-69
2022/05/21 15:27:37;;;;;;;;;;;;;;;27.85;87.27;98318.69;4901863;29;19958;-69
2022/05/21 15:30:07;;;;;;;;;;;;;;;27.81;88.94;98312.38;4902348;29;19948;-69
2022/05/21 15:32:35;;;;;;;;;;;;;;;27.78;87.75;98322.03;4901530;29;19965;-69
2022/05/21 15:35:03;;;;;;;;;;;;;;;27.76;88.20;98313.91;4902507;29;19971;-69
2022/05/21 15:37:31;;;;;;;;;;;;;;;27.75;88.61;98312.34;4887990;29;19949;-70
2022/05/21 15:39:58;;;;;;;;;;;;;;;27.71;89.88;98311.78;4901112;29;19950;-69
2022/05/21 15:42:26;;;;;;;;;;;;;;;27.69;90.78;98308.66;4901221;29;19958;-70
2022/05/21 15:44:54;;;;;;;;;;;;;;;27.65;95.93;98305.25;4901760;29;19948;-70
2022/05/21 15:47:21;;;;;;;;;;;;;;;27.64;96.40;98306.53;4901994;29;19949;-70
2022/05/21 15:49:49;;;;;;;;;;;;;;;27.63;94.99;98299.19;4904077;29;20379;-70
2022/05/21 15:52:18;;;;;;;;;;;;;;;27.61;94.13;98307.56;4902605;29;19952;-70
2022/05/21 15:54:48;;;;;;;;;;;;;;;27.64;92.35;98305.75;4901738;29;19974;-70
2022/05/21 15:57:15;;;;;;;;;;;;;;;27.61;96.04;98295.28;4902845;29;19954;-70
2022/05/21 15:59:42;;;;;;;;;;;;;;;27.60;92.74;98305.19;4885347;29;19948;-70
2022/05/21 16:02:15;;;;;;;;;;;;;;;27.55;92.31;98298.13;4901578;29;20500;-70
2022/05/21 16:04:42;;;;;;;;;;;;;;;27.54;92.77;98296.53;4900619;29;19948;-69
2022/05/21 16:07:09;;;;;;;;;;;;;;;27.51;92.43;98291.81;4901058;29;19975;-70
2022/05/21 16:09:37;;;;;;;;;;;;;;;27.49;91.78;98287.88;4901866;29;19953;-70
2022/05/21 16:12:05;;;;;;;;;;;;;;;27.46;90.41;98283.97;4901933;29;19948;-70
2022/05/21 16:14:33;;;;;;;;;;;;;;;27.44;90.81;98283.69;4901947;29;19957;-70
2022/05/21 16:17:00;;;;;;;;;;;;;;;27.45;94.81;98276.66;4901623;29;20381;-70
2022/05/21 16:19:36;;;;;;;;;;;;;;;27.29;92.47;98269.47;4897921;29;19945;-70
2022/05/21 16:22:05;;;;;;;;;;;;;;;27.26;93.73;98263.97;4900828;29;19952;-70
2022/05/21 16:24:33;;;;;;;;;;;;;;;27.22;92.96;98269.94;4901693;29;19955;-70
2022/05/21 16:27:12;;;;;;;;;;;;;;;27.18;93.36;98266.53;4901369;29;20346;-70
2022/05/21 16:29:40;;;;;;;;;;;;;;;27.16;94.10;98259.72;4904012;29;19973;-70
2022/05/21 16:32:09;;;;;;;;;;;;;;;27.13;98.70;98255.78;4905149;29;19959;-70
2022/05/21 16:34:36;;;;;;;;;;;;;;;27.11;99.56;98257.59;4893162;29;19948;-70
2022/05/21 16:37:04;;;;;;;;;;;;;;;27.01;100.00;98254.13;4902068;29;19949;-70
2022/05/21 16:39:32;;;;;;;;;;;;;;;27.01;100.00;98247.59;4905305;29;19957;-70
2022/05/21 16:42:00;;;;;;;;;;;;;;;26.97;100.00;98247.06;4905080;29;19952;-71
2022/05/21 16:44:28;;;;;;;;;;;;;;;26.90;100.00;98256.13;4904649;29;19946;-70
2022/05/21 16:46:56;;;;;;;;;;;;;;;26.87;100.00;98237.84;4903910;29;20329;-70
2022/05/21 16:49:25;;;;;;;;;;;;;;;26.82;100.00;98244.31;4912732;29;19979;-70
2022/05/21 16:51:53;;;;;;;;;;;;;;;26.85;100.00;98234.69;4922104;29;19963;-70
2022/05/21 16:54:21;;;;;;;;;;;;;;;26.79;100.00;98236.72;4885091;29;19949;-70
2022/05/21 16:56:49;;;;;;;;;;;;;;;26.74;100.00;98238.22;4903430;29;20258;-70
2022/05/21 16:59:17;;;;;;;;;;;;;;;26.69;100.00;98238.19;4904689;29;19955;-70
2022/05/21 17:01:48;;;;;;;;;;;;;;;26.69;100.00;98236.09;4904589;29;19948;-70
2022/05/21 17:04:17;;;;;;;;;;;;;;;26.62;100.00;98230.03;4899820;29;19944;-70
2022/05/21 17:06:46;;;;;;;;;;;;;;;26.43;100.00;98223.88;4903474;29;19952;-70
2022/05/21 17:09:14;;;;;;;;;;;;;;;26.46;100.00;98222.84;4903896;29;20255;-70
2022/05/21 17:11:42;;;;;;;;;;;;;;;26.49;100.00;98218.97;4903347;29;19951;-70
2022/05/21 17:14:10;;;;;;;;;;;;;;;26.43;100.00;98221.00;4903824;29;19953;-70
2022/05/21 17:16:38;;;;;;;;;;;;;;;26.35;100.00;98222.75;4900725;29;20289;-70
2022/05/21 17:19:05;;;;;;;;;;;;;;;26.26;100.00;98222.91;4907698;29;19949;-70
2022/05/21 17:21:40;;;;;;;;;;;;;;;26.18;100.00;98224.66;4904276;29;19950;-70
2022/05/21 17:24:11;;;;;;;;;;;;;;;26.12;100.00;98211.56;4885829;29;19959;-70
2022/05/21 17:26:39;;;;;;;;;;;;;;;26.05;100.00;98222.13;4886103;29;20249;-70
2022/05/21 17:31:52;;;;;;;;;;;;;;;25.95;100.00;98211.31;4900818;29;19958;-70
2022/05/21 17:34:19;;;;;;;;;;;;;;;25.87;100.00;98213.09;4903659;29;19950;-70
2022/05/21 17:36:46;;;;;;;;;;;;;;;25.83;100.00;98212.50;4903033;29;19967;-70
2022/05/21 17:39:13;;;;;;;;;;;;;;;25.80;100.00;98210.66;4904102;29;20252;-70
2022/05/21 17:41:41;;;;;;;;;;;;;;;25.73;100.00;98205.34;4904343;29;20249;-70
2022/05/21 17:44:08;;;;;;;;;;;;;;;25.70;100.00;98212.09;4904211;29;19944;-70
2022/05/21 17:46:37;;;;;;;;;;;;;;;25.61;100.00;98210.16;4904537;29;19944;-70
2022/05/21 17:49:05;;;;;;;;;;;;;;;25.56;100.00;98207.22;4903964;29;19968;-70
2022/05/21 17:51:33;;;;;;;;;;;;;;;25.51;100.00;98217.31;4904529;29;20282;-70
2022/05/21 17:54:00;;;;;;;;;;;;;;;25.45;100.00;98210.72;4904577;29;19947;-70
2022/05/21 17:56:28;;;;;;;;;;;;;;;25.36;100.00;98208.75;4903534;29;19967;-70
2022/05/21 17:58:55;;;;;;;;;;;;;;;25.24;100.00;98194.78;4904045;29;19955;-70
2022/05/21 18:01:23;;;;;;;;;;;;;;;25.15;100.00;98198.56;4904055;29;19949;-70
2022/05/21 18:03:52;;;;;;;;;;;;;;;25.07;100.00;98196.63;4903941;29;19959;-70
2022/05/21 18:06:19;;;;;;;;;;;;;;;25.03;100.00;98202.56;4903912;29;19956;-70
2022/05/21 18:08:47;;;;;;;;;;;;;;;25.01;100.00;98199.41;4903625;29;19948;-70
2022/05/21 18:11:14;;;;;;;;;;;;;;;24.97;100.00;98203.75;4903808;29;19956;-70
2022/05/21 18:13:41;;;;;;;;;;;;;;;24.91;100.00;98200.81;4884139;29;20334;-70
2022/05/21 18:21:42;;;;;;;;;;;;;;;24.78;100.00;98206.06;4902828;29;19952;-70
2022/05/21 18:24:09;;;;;;;;;;;;;;;24.72;100.00;98216.63;4902757;29;20375;-70
2022/05/21 18:26:39;;;;;;;;;;;;;;;24.64;100.00;98210.50;4901346;29;19948;-67
2022/05/21 18:29:07;;;;;;;;;;;;;;;24.58;100.00;98223.13;4900542;29;19955;-69
2022/05/21 18:31:35;;;;;;;;;;;;;;;24.55;100.00;98206.97;4900163;29;20242;-69
2022/05/21 18:34:03;;;;;;;;;;;;;;;24.39;100.00;98213.19;4901975;29;19960;-68
2022/05/21 18:36:31;;;;;;;;;;;;;;;24.34;100.00;98217.50;4902946;29;20266;-69
2022/05/21 18:38:58;;;;;;;;;;;;;;;24.29;100.00;98211.69;4902278;29;19956;-69
2022/05/21 18:41:26;;;;;;;;;;;;;;;24.23;100.00;98208.75;4902405;29;19966;-68
2022/05/21 18:43:55;;;;;;;;;;;;;;;24.18;100.00;98218.00;4900806;29;19949;-68
2022/05/21 18:46:24;;;;;;;;;;;;;;;24.10;100.00;98217.63;4902392;29;19950;-68
2022/05/21 18:48:52;;;;;;;;;;;;;;;23.98;100.00;98221.50;4901935;29;20359;-69
2022/05/21 18:51:25;;;;;;;;;;;;;;;23.93;100.00;98221.38;4903072;29;19946;-69
2022/05/21 18:53:53;;;;;;;;;;;;;;;23.83;100.00;98220.69;4903539;29;20326;-69
2022/05/21 18:56:22;;;;;;;;;;;;;;;23.75;100.00;98224.38;4902403;29;19965;-69
2022/05/21 18:58:51;;;;;;;;;;;;;;;23.67;100.00;98226.06;4901782;29;20350;-69
2022/05/21 19:01:20;;;;;;;;;;;;;;;23.60;100.00;98227.19;4901977;29;20282;-69
2022/05/21 19:03:47;;;;;;;;;;;;;;;23.62;100.00;98232.44;4902000;29;19947;-69
2022/05/21 19:06:17;;;;;;;;;;;;;;;23.60;100.00;98238.63;4901405;29;20384;-69
2022/05/21 19:08:45;;;;;;;;;;;;;;;23.60;100.00;98246.41;4896234;29;19947;-68
2022/05/21 19:11:13;;;;;;;;;;;;;;;23.56;100.00;98246.59;4901996;29;19953;-69
2022/05/21 19:13:42;;;;;;;;;;;;;;;23.54;100.00;98246.28;4900125;29;19948;-69
2022/05/21 19:16:15;;;;;;;;;;;;;;;23.53;100.00;98247.56;4901798;29;19967;-69
2022/05/21 19:21:28;;;;;;;;;;;;;;;23.48;100.00;98256.78;4901234;29;20332;-74
2022/05/21 19:23:58;;;;;;;;;;;;;;;23.44;100.00;98259.84;4901388;29;19959;-70
2022/05/21 19:26:26;;;;;;;;;;;;;;;23.39;100.00;98254.78;4902446;29;19952;-70
2022/05/21 19:28:54;;;;;;;;;;;;;;;23.36;100.00;98252.91;4901843;29;19958;-71
2022/05/21 19:31:21;;;;;;;;;;;;;;;23.28;100.00;98259.44;4902672;29;19949;-71
2022/05/21 19:33:51;;;;;;;;;;;;;;;23.15;100.00;98261.72;4902991;29;20262;-71
2022/05/21 19:36:18;;;;;;;;;;;;;;;23.05;100.00;98268.75;4901991;29;19975;-72
2022/05/21 19:38:45;;;;;;;;;;;;;;;23.00;100.00;98263.69;4902344;29;19949;-73
2022/05/21 19:41:14;;;;;;;;;;;;;;;22.97;100.00;98271.16;4901464;29;19954;-73
2022/05/21 19:43:43;;;;;;;;;;;;;;;22.94;100.00;98274.97;4901936;29;20356;-72
2022/05/21 19:46:12;;;;;;;;;;;;;;;22.90;100.00;98271.50;4903272;29;19979;-72
2022/05/21 19:48:40;;;;;;;;;;;;;;;22.88;100.00;98268.34;4902018;29;20377;-71
2022/05/21 19:51:07;;;;;;;;;;;;;;;22.87;100.00;98272.47;4901402;29;20250;-72
2022/05/21 19:53:38;;;;;;;;;;;;;;;22.82;100.00;98276.75;4901533;29;19953;-71
2022/05/21 19:56:11;;;;;;;;;;;;;;;22.77;100.00;98271.72;4901929;29;19951;-69
2022/05/21 19:58:39;;;;;;;;;;;;;;;22.77;100.00;98273.75;4902225;29;19955;-71
2022/05/21 20:01:11;;;;;;;;;;;;;;;22.80;100.00;98267.09;4901361;29;19958;-70
2022/05/21 20:03:40;;;;;;;;;;;;;;;22.80;100.00;98267.09;4901550;29;20252;-68
2022/05/21 20:06:07;;;;;;;;;;;;;;;22.80;100.00;98276.44;4901903;29;19949;-68
2022/05/21 20:08:34;;;;;;;;;;;;;;;22.81;100.00;98274.41;4901196;29;20229;-68
2022/05/21 20:11:02;;;;;;;;;;;;;;;22.74;100.00;98269.03;4899815;29;19948;-70
2022/05/21 20:13:30;;;;;;;;;;;;;;;22.70;100.00;98269.19;4893760;29;19949;-70
2022/05/21 20:15:57;;;;;;;;;;;;;;;22.69;100.00;98261.13;4900905;29;19950;-70
2022/05/21 20:18:24;;;;;;;;;;;;;;;22.67;100.00;98261.59;4901644;29;19978;-71
2022/05/21 20:20:52;;;;;;;;;;;;;;;22.69;100.00;98266.84;4900077;29;20002;-70
2022/05/21 20:23:19;;;;;;;;;;;;;;;22.69;100.00;98269.69;4897595;29;19953;-71
2022/05/21 20:25:49;;;;;;;;;;;;;;;22.68;100.00;98265.25;4901056;29;19959;-70
2022/05/21 20:28:16;;;;;;;;;;;;;;;22.68;100.00;98271.75;4901302;29;19953;-70
2022/05/21 20:30:48;;;;;;;;;;;;;;;22.69;100.00;98272.53;4897703;29;20259;-72
2022/05/21 20:33:15;;;;;;;;;;;;;;;22.63;100.00;98275.25;4903108;29;20537;-71
2022/05/21 20:35:43;;;;;;;;;;;;;;;22.59;100.00;98277.44;4898897;29;19949;-71
2022/05/21 20:38:10;;;;;;;;;;;;;;;22.53;100.00;98273.66;4900753;29;20260;-71
2022/05/21 20:40:37;;;;;;;;;;;;;;;22.47;100.00;98264.16;4901029;29;19946;-71
2022/05/21 20:43:05;;;;;;;;;;;;;;;22.44;100.00;98265.13;4901140;29;19954;-71
2022/05/21 20:45:33;;;;;;;;;;;;;;;22.42;100.00;98273.38;4898841;29;19958;-71
2022/05/21 20:50:46;;;;;;;;;;;;;;;22.44;100.00;98270.84;4898962;29;19956;-71
2022/05/21 20:53:13;;;;;;;;;;;;;;;22.47;100.00;98274.78;4900656;29;19949;-70
2022/05/21 20:55:41;;;;;;;;;;;;;;;22.41;100.00;98268.94;4898105;29;19955;-70
2022/05/21 20:58:09;;;;;;;;;;;;;;;22.37;100.00;98271.16;4898205;29;19975;-69
2022/05/21 21:00:38;;;;;;;;;;;;;;;22.33;100.00;98264.81;4900262;29;19950;-69
2022/05/21 21:03:06;;;;;;;;;;;;;;;22.33;100.00;98270.53;4900032;29;20234;-69
2022/05/21 21:05:34;;;;;;;;;;;;;;;22.29;100.00;98266.25;4900083;29;19949;-70
2022/05/21 21:08:02;;;;;;;;;;;;;;;22.27;100.00;98275.28;4900089;29;19950;-69
2022/05/21 21:10:31;;;;;;;;;;;;;;;22.22;100.00;98275.94;4900462;29;19963;-69
2022/05/21 21:13:00;;;;;;;;;;;;;;;22.20;100.00;98267.84;4899515;29;19951;-69
2022/05/21 21:15:28;;;;;;;;;;;;;;;22.19;100.00;98271.19;4900471;29;19956;-69
2022/05/21 21:17:55;;;;;;;;;;;;;;;22.18;100.00;98273.22;4898331;29;19969;-70
2022/05/21 21:20:23;;;;;;;;;;;;;;;22.18;100.00;98266.75;4896414;29;19956;-70
2022/05/21 21:22:50;;;;;;;;;;;;;;;22.18;100.00;98266.75;4904695;29;20388;-68
2022/05/21 21:25:18;;;;;;;;;;;;;;;22.18;100.00;98264.69;4902225;29;19953;-69
2022/05/21 21:27:45;;;;;;;;;;;;;;;22.18;100.00;98266.75;4900426;29;19968;-69
2022/05/21 21:30:16;;;;;;;;;;;;;;;22.12;100.00;98268.66;4903327;29;19954;-68
2022/05/21 21:32:44;;;;;;;;;;;;;;;22.09;100.00;98258.22;4903477;29;19955;-68
2022/05/21 21:35:11;;;;;;;;;;;;;;;22.00;100.00;98261.09;4907298;29;20234;-68
2022/05/21 21:37:38;;;;;;;;;;;;;;;21.89;100.00;98261.56;4903427;29;19962;-68
2022/05/21 21:40:06;;;;;;;;;;;;;;;21.82;100.00;98266.72;4904469;29;19960;-69
2022/05/21 21:42:33;;;;;;;;;;;;;;;21.78;100.00;98263.25;4910498;29;19955;-70
2022/05/21 21:45:01;;;;;;;;;;;;;;;21.74;100.00;98263.41;4908159;29;19953;-69
2022/05/21 21:47:29;;;;;;;;;;;;;;;21.73;100.00;98266.75;4902842;29;19948;-69
2022/05/21 21:49:56;;;;;;;;;;;;;;;21.69;100.00;98263.28;4899225;29;21555;-69
2022/05/21 21:52:24;;;;;;;;;;;;;;;21.68;100.00;98275.91;4906047;29;19959;-70
2022/05/21 21:54:51;;;;;;;;;;;;;;;21.66;100.00;98275.59;4908236;29;20330;-67
2022/05/21 21:57:21;;;;;;;;;;;;;;;21.57;100.00;98277.16;4902570;29;20366;-69
2022/05/21 22:02:40;;;;;;;;;;;;;;;21.41;100.00;98270.97;4903222;29;19949;-68
2022/05/21 22:05:10;;;;;;;;;;;;;;;21.36;100.00;98272.38;4905885;29;20244;-69
2022/05/21 22:07:39;;;;;;;;;;;;;;;21.29;100.00;98269.84;4903451;29;19951;-68
2022/05/21 22:10:06;;;;;;;;;;;;;;;21.30;100.00;98264.97;4903494;29;19948;-68
2022/05/21 22:12:34;;;;;;;;;;;;;;;21.30;100.00;98268.56;4902629;29;20356;-69
2022/05/21 22:15:01;;;;;;;;;;;;;;;21.30;100.00;98268.56;4902091;29;19947;-69
2022/05/21 22:17:32;;;;;;;;;;;;;;;21.29;100.00;98272.69;4901596;29;19972;-68
2022/05/21 22:19:59;;;;;;;;;;;;;;;21.28;100.00;98273.94;4901683;29;19947;-68
2022/05/21 22:22:26;;;;;;;;;;;;;;;21.30;100.00;98270.66;4900786;29;19949;-69
2022/05/21 22:24:57;;;;;;;;;;;;;;;21.28;100.00;98271.09;4901403;29;19949;-69
2022/05/21 22:27:24;;;;;;;;;;;;;;;21.30;100.00;98270.66;4904318;29;19949;-69
2022/05/21 22:29:51;;;;;;;;;;;;;;;21.30;100.00;98267.81;4902169;29;20249;-68
2022/05/21 22:32:19;;;;;;;;;;;;;;;21.30;100.00;98276.34;4902503;29;19955;-68
2022/05/21 22:34:47;;;;;;;;;;;;;;;21.31;100.00;98269.38;4902858;29;19968;-68
2022/05/21 22:37:15;;;;;;;;;;;;;;;21.33;100.00;98269.69;4900502;29;19952;-68
2022/05/21 22:39:42;;;;;;;;;;;;;;;21.33;100.00;98269.69;4905962;29;19946;-68
2022/05/21 22:42:09;;;;;;;;;;;;;;;21.35;100.00;98264.31;4901912;29;20328;-70
2022/05/21 22:44:37;;;;;;;;;;;;;;;21.32;100.00;98262.44;4898384;29;19947;-70
2022/05/21 22:47:04;;;;;;;;;;;;;;;21.26;100.00;98262.25;4902687;29;19946;-70
2022/05/21 22:49:32;;;;;;;;;;;;;;;21.18;100.00;98269.50;4899551;29;20270;-70
2022/05/21 22:52:00;;;;;;;;;;;;;;;21.13;100.00;98272.94;4901165;29;19956;-70
2022/05/21 22:54:27;;;;;;;;;;;;;;;21.08;100.00;98262.19;4900197;29;19949;-69
2022/05/21 22:56:54;;;;;;;;;;;;;;;21.09;100.00;98263.78;4898458;29;20339;-69
2022/05/21 22:59:23;;;;;;;;;;;;;;;21.05;100.00;98265.16;4900852;29;19965;-69
2022/05/21 23:01:52;;;;;;;;;;;;;;;21.04;100.00;98269.25;4900090;29;20334;-69
2022/05/21 23:04:19;;;;;;;;;;;;;;;21.03;100.00;98259.16;4904979;29;19960;-69
2022/05/21 23:06:46;;;;;;;;;;;;;;;21.01;100.00;98253.91;4900455;29;20265;-69
2022/05/21 23:09:14;;;;;;;;;;;;;;;20.96;100.00;98255.34;4901398;29;20352;-68
2022/05/21 23:11:42;;;;;;;;;;;;;;;20.86;100.00;98241.53;4899182;29;19954;-69
2022/05/21 23:19:41;;;;;;;;;;;;;;;20.81;100.00;98237.28;4899184;29;19969;-69
2022/05/21 23:22:23;;;;;;;;;;;;;;;20.82;100.00;98233.19;4902014;29;20348;-69
2022/05/21 23:25:00;;;;;;;;;;;;;;;20.96;100.00;98234.63;4901696;29;20489;-68
2022/05/21 23:27:27;;;;;;;;;;;;;;;20.85;100.00;98232.25;4899987;29;19954;-69
2022/05/21 23:29:54;;;;;;;;;;;;;;;20.90;100.00;98225.16;4901816;29;19956;-69
2022/05/21 23:32:22;;;;;;;;;;;;;;;20.92;100.00;98225.47;4885607;29;20255;-69
2022/05/21 23:34:49;;;;;;;;;;;;;;;20.93;100.00;98227.06;4901636;29;19946;-69
2022/05/21 23:37:18;;;;;;;;;;;;;;;20.92;100.00;98217.75;4901164;29;20278;-70
2022/05/21 23:39:45;;;;;;;;;;;;;;;20.96;100.00;98209.06;4899257;29;19964;-68
2022/05/21 23:42:12;;;;;;;;;;;;;;;20.92;100.00;98212.06;4901654;29;19948;-69
2022/05/21 23:44:40;;;;;;;;;;;;;;;20.92;100.00;98211.25;4900801;29;19957;-69
2022/05/21 23:47:09;;;;;;;;;;;;;;;20.92;100.00;98203.53;4901172;29;19949;-68
2022/05/21 23:49:37;;;;;;;;;;;;;;;20.93;100.00;98205.09;4901691;29;19976;-68
2022/05/21 23:52:04;;;;;;;;;;;;;;;20.92;100.00;98202.72;4901003;29;19948;-69
2022/05/21 23:54:31;;;;;;;;;;;;;;;20.95;100.00;98213.19;4902262;29;19956;-69
2022/05/21 23:56:59;;;;;;;;;;;;;;;20.94;100.00;98201.00;4904605;29;20214;-69
2022/05/21 23:59:28;;;;;;;;;;;;;;;20.95;100.00;98191.22;4903030;29;19998;-69
